createdAt,value
2023-01-11T00:00:21.691Z,26.48
2023-01-11T00:01:21.591Z,28.19
2023-01-11T00:02:21.577Z,28.01
2023-01-11T00:03:21.412Z,26.69
2023-01-11T00:04:21.401Z,27.53
2023-01-11T00:05:21.223Z,27.97
2023-01-11T00:06:21.164Z,25.00
2023-01-11T00:07:21.051Z,29.03
2023-01-11T00:08:20.953Z,29.11
2023-01-11T00:09:20.890Z,26.59
2023-01-11T00:10:20.826Z,28.56
2023-01-11T00:11:20.698Z,27.57
2023-01-11T00:12:20.628Z,28.82
2023-01-11T00:13:20.532Z,26.89
2023-01-11T00:14:20.434Z,28.49
2023-01-11T00:15:20.341Z,29.37
2023-01-11T00:16:20.335Z,30.10
2023-01-11T00:17:20.183Z,28.42
2023-01-11T00:18:20.080Z,29.17
2023-01-11T00:19:19.996Z,26.69
2023-01-11T00:20:19.915Z,28.40
2023-01-11T00:21:19.827Z,26.73
2023-01-11T00:22:19.728Z,26.23
2023-01-11T00:23:19.637Z,28.86
2023-01-11T00:24:19.538Z,28.31
2023-01-11T00:25:19.445Z,27.12
2023-01-11T00:26:19.355Z,29.12
2023-01-11T00:27:19.270Z,27.89
2023-01-11T00:28:19.221Z,28.65
2023-01-11T00:29:19.074Z,29.94
2023-01-11T00:30:19.006Z,29.19
2023-01-11T00:31:18.920Z,27.63
2023-01-11T00:32:18.805Z,27.86
2023-01-11T00:33:18.719Z,31.16
2023-01-11T00:34:18.623Z,26.18
2023-01-11T00:35:18.547Z,27.56
2023-01-11T00:36:18.452Z,25.00
2023-01-11T00:37:18.361Z,25.28
2023-01-11T00:38:18.266Z,25.61
2023-01-11T00:39:18.165Z,25.86
2023-01-11T00:40:18.128Z,26.28
2023-01-11T00:41:18.005Z,27.69
2023-01-11T00:42:17.921Z,27.25
2023-01-11T00:43:17.818Z,28.73
2023-01-11T00:44:17.738Z,29.07
2023-01-11T00:45:17.654Z,28.64
2023-01-11T00:46:17.611Z,29.67
2023-01-11T00:47:17.479Z,27.37
2023-01-11T00:48:17.404Z,28.57
2023-01-11T00:49:17.283Z,25.49
2023-01-11T00:50:17.221Z,28.13
2023-01-11T00:51:17.145Z,27.45
2023-01-11T00:52:17.055Z,28.94
2023-01-11T00:53:16.931Z,28.16
2023-01-11T00:54:16.866Z,27.36
2023-01-11T00:55:16.766Z,27.05
2023-01-11T00:56:16.679Z,25.00
2023-01-11T00:57:16.595Z,28.06
2023-01-11T00:58:16.512Z,28.54
2023-01-11T00:59:16.455Z,28.73
2023-01-11T01:00:16.355Z,27.25
2023-01-11T01:01:16.307Z,28.38
2023-01-11T01:02:16.186Z,26.70
2023-01-11T01:03:16.096Z,27.17
2023-01-11T01:04:16.044Z,30.37
2023-01-11T01:05:15.944Z,28.90
2023-01-11T01:06:15.843Z,28.26
2023-01-11T01:07:15.764Z,31.45
2023-01-11T01:08:15.701Z,29.87
2023-01-11T01:09:15.591Z,28.70
2023-01-11T01:10:15.524Z,27.06
2023-01-11T01:11:15.434Z,27.57
2023-01-11T01:12:15.360Z,27.83
2023-01-11T01:13:15.279Z,28.06
2023-01-11T01:14:15.194Z,28.60
2023-01-11T02:49:06.951Z,27.91
2023-01-11T02:50:06.867Z,29.56
2023-01-11T02:51:06.769Z,29.44
2023-01-11T02:52:06.689Z,27.29
2023-01-11T02:53:06.608Z,28.97
2023-01-11T02:54:06.541Z,28.82
2023-01-11T02:55:06.405Z,29.07
2023-01-11T02:56:06.322Z,27.34
2023-01-11T02:57:06.240Z,30.28
2023-01-11T02:58:06.157Z,28.68
2023-01-11T02:59:06.076Z,27.26
2023-01-11T03:00:05.982Z,26.10
2023-01-11T03:01:05.920Z,30.85
2023-01-11T03:02:05.929Z,28.24
2023-01-11T03:03:05.782Z,27.79
2023-01-11T03:04:05.647Z,27.69
2023-01-11T03:05:05.554Z,27.39
2023-01-11T03:06:05.461Z,26.92
2023-01-11T03:07:05.386Z,26.69
2023-01-11T03:08:05.300Z,29.36
2023-01-11T03:09:05.196Z,27.60
2023-01-11T03:51:01.480Z,29.05
2023-01-11T03:52:01.392Z,29.33
2023-01-11T03:53:01.319Z,29.23
2023-01-11T03:54:01.227Z,27.09
2023-01-11T03:55:01.161Z,27.91
2023-01-11T03:56:01.048Z,29.13
2023-01-11T03:57:00.966Z,26.64
2023-01-11T03:58:00.875Z,25.92
2023-01-11T03:59:00.795Z,27.60
2023-01-11T04:00:00.717Z,24.38
2023-01-11T04:01:00.677Z,28.86
2023-01-11T04:02:00.542Z,28.33
2023-01-11T04:03:00.459Z,29.47
2023-01-11T04:04:00.396Z,26.91
2023-01-11T04:05:00.289Z,27.51
2023-01-11T04:06:00.180Z,27.95
2023-01-11T04:07:00.160Z,29.51
2023-01-11T04:08:00.026Z,27.54
2023-01-11T04:08:59.912Z,28.58
2023-01-11T04:09:59.817Z,25.80
2023-01-11T04:10:59.744Z,27.75
2023-01-11T04:11:59.648Z,26.05
2023-01-11T04:12:59.556Z,27.42
2023-01-11T04:13:59.459Z,27.51
2023-01-11T04:14:59.368Z,28.71
2023-01-11T04:15:59.347Z,29.74
2023-01-11T04:16:59.200Z,27.13
2023-01-11T04:17:59.121Z,28.01
2023-01-11T04:18:59.014Z,28.99
2023-01-11T04:19:58.938Z,28.74
2023-01-11T04:20:58.848Z,27.11
2023-01-11T04:21:58.744Z,27.13
2023-01-11T04:22:58.652Z,26.51
2023-01-11T04:23:58.558Z,27.73
2023-01-11T04:24:58.469Z,30.35
2023-01-11T04:25:58.405Z,27.71
2023-01-11T04:26:58.293Z,31.01
2023-01-11T04:27:58.208Z,30.03
2023-01-11T04:28:58.104Z,29.49
2023-01-11T04:29:58.029Z,29.71
2023-01-11T04:30:57.942Z,29.79
2023-01-11T04:31:57.834Z,29.21
2023-01-11T04:32:57.745Z,28.93
2023-01-11T04:33:57.677Z,30.35
2023-01-11T04:34:57.576Z,30.41
2023-01-11T04:35:57.495Z,29.34
2023-01-11T04:36:57.395Z,30.12
2023-01-11T04:37:57.299Z,27.62
2023-01-11T04:38:57.212Z,26.63
2023-01-11T04:39:57.133Z,27.65
2023-01-11T04:40:57.069Z,26.50
2023-01-11T04:41:56.961Z,28.66
2023-01-11T04:42:56.879Z,26.68
2023-01-11T04:43:56.796Z,26.80
2023-01-11T04:44:56.693Z,28.54
2023-01-11T04:45:56.694Z,25.98
2023-01-11T04:46:56.530Z,28.48
2023-01-11T04:47:56.433Z,26.90
2023-01-11T04:48:56.347Z,28.74
2023-01-11T04:49:56.256Z,28.10
2023-01-11T04:50:56.176Z,26.65
2023-01-11T04:51:56.089Z,29.09
2023-01-11T04:52:55.992Z,27.04
2023-01-11T04:53:55.927Z,27.67
2023-01-11T04:54:55.836Z,27.18
2023-01-11T04:55:55.728Z,29.45
2023-01-11T04:56:55.640Z,27.05
2023-01-11T04:57:55.555Z,28.52
2023-01-11T04:58:55.458Z,27.59
2023-01-11T04:59:55.389Z,29.41
2023-01-11T05:00:55.331Z,29.46
2023-01-11T05:01:55.197Z,27.90
2023-01-11T06:49:46.165Z,95.98
2023-01-11T06:50:46.080Z,94.70
2023-01-11T06:51:45.955Z,85.99
2023-01-11T06:52:45.863Z,55.07
2023-01-11T06:53:45.784Z,58.34
2023-01-11T06:54:45.703Z,60.12
2023-01-11T06:55:45.606Z,72.98
2023-01-11T06:56:45.554Z,102.97
2023-01-11T06:57:45.491Z,110.09
2023-01-11T06:58:47.051Z,96.40
2023-01-11T06:59:45.279Z,84.85
2023-01-11T07:00:45.200Z,85.29
2023-01-11T08:16:39.002Z,90.55
2023-01-11T08:17:38.958Z,92.45
2023-01-11T08:18:39.657Z,92.60
2023-01-11T08:19:38.729Z,89.42
2023-01-11T08:20:38.745Z,89.95
2023-01-11T08:21:38.491Z,90.43
2023-01-11T08:22:38.423Z,93.55
2023-01-11T08:23:38.330Z,88.91
2023-01-11T08:24:38.236Z,89.80
2023-01-11T08:25:38.179Z,87.90
2023-01-11T08:26:38.094Z,86.57
2023-01-11T08:27:40.623Z,91.53
2023-01-11T08:28:37.920Z,92.87
2023-01-11T08:29:37.707Z,91.62
2023-01-11T08:30:37.603Z,90.20
2023-01-11T08:31:37.517Z,90.61
2023-01-11T08:32:37.416Z,91.38
2023-01-11T08:33:37.311Z,91.54
2023-01-11T08:34:37.214Z,96.72
2023-01-11T08:35:37.129Z,97.05
2023-01-11T08:36:37.017Z,98.40
2023-01-11T08:37:37.012Z,99.73
2023-01-11T08:38:36.843Z,95.95
2023-01-11T08:39:36.782Z,96.63
2023-01-11T08:40:36.648Z,99.65
2023-01-11T08:41:36.555Z,102.56
2023-01-11T08:42:36.469Z,104.01
2023-01-11T08:43:36.375Z,104.05
2023-01-11T08:44:36.279Z,103.36
2023-01-11T08:45:36.209Z,106.26
2023-01-11T08:46:36.169Z,106.92
2023-01-11T08:47:36.018Z,107.18
2023-01-11T08:48:35.936Z,107.53
2023-01-11T08:49:35.831Z,107.72
2023-01-11T08:50:35.769Z,108.83
2023-01-11T08:51:35.633Z,107.78
2023-01-11T08:52:35.579Z,108.33
2023-01-11T08:53:35.468Z,109.95
2023-01-11T08:54:35.367Z,108.50
2023-01-11T08:55:35.258Z,105.74
2023-01-11T08:56:35.197Z,108.01
2023-01-11T09:00:36.960Z,110.26
2023-01-11T09:31:36.056Z,125.05
2023-01-11T10:22:27.949Z,119.01
2023-01-11T10:23:27.792Z,116.85
2023-01-11T10:24:27.737Z,117.22
2023-01-11T10:25:27.581Z,117.57
2023-01-11T10:26:27.477Z,118.27
2023-01-11T10:27:27.381Z,117.23
2023-01-11T10:28:27.339Z,117.89
2023-01-11T10:29:27.264Z,118.36
2023-01-11T10:30:27.099Z,118.67
2023-01-11T10:31:27.029Z,120.97
2023-01-11T10:32:26.917Z,120.32
2023-01-11T10:33:26.805Z,121.67
2023-01-11T10:34:26.731Z,120.01
2023-01-11T10:35:26.602Z,122.59
2023-01-11T10:36:28.722Z,118.09
2023-01-11T10:37:26.419Z,122.14
2023-01-11T10:38:26.430Z,119.23
2023-01-11T10:39:26.223Z,115.67
2023-01-11T10:40:26.128Z,114.09
2023-01-11T10:41:26.225Z,120.19
2023-01-11T10:42:25.937Z,122.29
2023-01-11T10:43:25.866Z,123.53
2023-01-11T10:44:25.770Z,122.09
2023-01-11T10:45:25.692Z,122.51
2023-01-11T10:46:25.525Z,122.86
2023-01-11T10:47:25.428Z,123.87
2023-01-11T10:48:25.332Z,124.07
2023-01-11T10:49:25.291Z,122.99
2023-01-11T10:58:24.412Z,107.98
2023-01-11T10:59:24.292Z,108.10
2023-01-11T11:00:24.218Z,106.60
2023-01-11T11:01:24.087Z,103.03
2023-01-11T11:02:25.550Z,103.71
2023-01-11T11:03:23.921Z,102.87
2023-01-11T11:04:23.867Z,98.56
2023-01-11T11:05:23.761Z,96.17
2023-01-11T11:06:23.626Z,97.45
2023-01-11T11:07:23.527Z,95.09
2023-01-11T11:08:23.445Z,92.71
2023-01-11T11:09:23.391Z,92.84
2023-01-11T11:10:23.249Z,92.85
2023-01-11T11:11:23.148Z,90.61
2023-01-11T11:12:23.057Z,89.80
2023-01-11T11:13:22.956Z,89.79
2023-01-11T11:14:22.861Z,84.90
2023-01-11T11:15:22.775Z,85.27
2023-01-11T11:16:22.788Z,84.81
2023-01-11T11:17:22.586Z,85.07
2023-01-11T11:18:22.539Z,85.48
2023-01-11T11:19:22.416Z,85.85
2023-01-11T11:20:22.318Z,86.10
2023-01-11T11:21:22.227Z,86.54
2023-01-11T11:22:22.171Z,86.23
2023-01-11T11:23:22.064Z,85.62
2023-01-11T11:24:21.968Z,83.58
2023-01-11T11:25:21.871Z,86.00
2023-01-11T11:26:21.778Z,85.92
2023-01-11T11:27:21.711Z,86.48
2023-01-11T11:28:21.617Z,85.32
2023-01-11T11:29:21.518Z,85.33
2023-01-11T11:30:21.431Z,85.47
2023-01-11T11:31:21.353Z,86.30
2023-01-11T11:32:21.249Z,86.47
2023-01-11T11:33:21.158Z,85.81
2023-01-11T11:34:21.086Z,86.93
2023-01-11T11:35:20.972Z,86.68
2023-01-11T11:36:20.922Z,87.70
2023-01-11T11:37:20.829Z,87.40
2023-01-11T11:38:20.769Z,88.00
2023-01-11T11:39:20.628Z,88.01
2023-01-11T11:40:20.564Z,86.89
2023-01-11T11:41:20.471Z,86.49
2023-01-11T11:42:20.382Z,88.05
2023-01-11T11:43:20.288Z,87.89
2023-01-11T11:44:20.187Z,87.82
2023-01-11T11:45:20.107Z,87.68
2023-01-11T11:46:20.487Z,87.81
2023-01-11T11:47:19.900Z,88.19
2023-01-11T11:48:19.810Z,87.91
2023-01-11T11:49:19.717Z,89.24
2023-01-11T11:50:32.067Z,88.98
2023-01-11T11:51:20.529Z,89.20
2023-01-11T11:52:19.439Z,89.49
2023-01-11T11:53:19.357Z,89.80
2023-01-11T11:54:19.260Z,90.51
2023-01-11T11:55:19.205Z,90.99
2023-01-11T11:56:19.103Z,92.48
2023-01-11T11:57:19.000Z,92.66
2023-01-11T11:58:18.963Z,92.66
2023-01-11T11:59:18.829Z,91.70
2023-01-11T12:00:18.753Z,92.20
2023-01-11T12:01:18.625Z,91.96
2023-01-11T12:02:18.585Z,91.09
2023-01-11T12:03:18.458Z,92.38
2023-01-11T12:04:18.359Z,91.20
2023-01-11T12:05:18.296Z,92.46
2023-01-11T12:06:18.169Z,92.84
2023-01-11T12:07:18.065Z,91.58
2023-01-11T12:08:17.981Z,90.14
2023-01-11T12:09:17.890Z,92.07
2023-01-11T12:10:17.799Z,92.31
2023-01-11T12:11:17.706Z,92.57
2023-01-11T12:12:17.636Z,92.76
2023-01-11T12:13:17.525Z,92.62
2023-01-11T12:14:17.492Z,90.10
2023-01-11T12:15:17.363Z,89.16
2023-01-11T12:16:17.377Z,91.40
2023-01-11T12:17:17.155Z,92.21
2023-01-11T12:18:17.084Z,89.95
2023-01-11T12:19:16.964Z,92.38
2023-01-11T12:20:16.931Z,91.91
2023-01-11T12:21:16.810Z,89.97
2023-01-11T12:22:16.704Z,91.09
2023-01-11T12:23:16.614Z,88.94
2023-01-11T12:24:16.521Z,90.34
2023-01-11T12:25:16.422Z,90.68
2023-01-11T12:26:16.360Z,90.91
2023-01-11T12:27:16.304Z,89.10
2023-01-11T12:28:16.167Z,89.52
2023-01-11T12:29:16.077Z,88.15
2023-01-11T12:30:17.756Z,91.02
2023-01-11T12:31:16.047Z,91.45
2023-01-11T12:32:15.825Z,87.56
2023-01-11T12:33:15.715Z,87.21
2023-01-11T12:34:15.649Z,85.86
2023-01-11T12:35:15.552Z,85.39
2023-01-11T12:36:15.454Z,85.79
2023-01-11T12:37:15.371Z,86.20
2023-01-11T12:38:15.296Z,85.70
2023-01-11T12:39:15.173Z,85.88
2023-01-11T12:40:15.146Z,84.16
2023-01-11T12:41:14.998Z,84.67
2023-01-11T12:42:14.913Z,81.09
2023-01-11T12:43:14.865Z,83.66
2023-01-11T12:44:14.743Z,81.66
2023-01-11T12:45:14.643Z,81.31
2023-01-11T12:46:14.648Z,81.03
2023-01-11T12:47:16.173Z,81.85
2023-01-11T12:48:14.378Z,84.44
2023-01-11T12:49:14.289Z,82.33
2023-01-11T12:50:14.363Z,82.49
2023-01-11T12:51:14.122Z,80.36
2023-01-11T12:52:14.053Z,79.78
2023-01-11T12:53:13.944Z,81.38
2023-01-11T12:54:13.881Z,80.37
2023-01-11T12:55:13.776Z,81.94
2023-01-11T12:56:13.664Z,78.77
2023-01-11T12:57:13.579Z,79.25
2023-01-11T12:58:14.442Z,80.82
2023-01-11T12:59:13.396Z,84.71
2023-01-11T13:00:13.357Z,82.71
2023-01-11T13:01:13.283Z,79.09
2023-01-11T13:02:13.179Z,78.41
2023-01-11T13:03:13.027Z,79.15
2023-01-11T13:04:12.949Z,81.78
2023-01-11T13:05:12.836Z,80.92
2023-01-11T13:06:12.735Z,78.74
2023-01-11T13:07:12.691Z,82.78
2023-01-11T13:08:12.564Z,81.79
2023-01-11T13:09:12.467Z,82.00
2023-01-11T13:10:12.396Z,82.38
2023-01-11T13:11:12.350Z,83.50
2023-01-11T13:12:12.225Z,80.36
2023-01-11T13:13:12.112Z,78.80
2023-01-11T13:14:12.050Z,80.54
2023-01-11T13:15:11.940Z,81.36
2023-01-11T13:16:11.827Z,82.97
2023-01-11T13:17:11.796Z,83.42
2023-01-11T13:18:11.665Z,83.52
2023-01-11T13:19:11.552Z,85.72
2023-01-11T13:20:11.444Z,85.30
2023-01-11T13:21:11.338Z,84.54
2023-01-11T13:22:11.257Z,85.29
2023-01-11T13:23:11.167Z,85.99
2023-01-11T13:24:11.064Z,86.53
2023-01-11T13:25:10.995Z,86.84
2023-01-11T13:26:10.890Z,86.94
2023-01-11T13:27:10.889Z,87.09
2023-01-11T13:28:13.613Z,88.09
2023-01-11T13:29:11.613Z,86.85
2023-01-11T13:30:10.561Z,87.38
2023-01-11T13:31:10.480Z,88.42
2023-01-11T13:32:10.340Z,88.79
2023-01-11T13:33:10.318Z,88.94
2023-01-11T13:34:10.197Z,90.59
2023-01-11T13:35:10.109Z,88.50
2023-01-11T13:36:22.223Z,86.74
2023-01-11T13:37:10.895Z,86.96
2023-01-11T13:38:09.790Z,87.13
2023-01-11T13:39:09.708Z,87.03
2023-01-11T13:40:09.615Z,87.12
2023-01-11T13:41:09.534Z,86.97
2023-01-11T13:42:09.447Z,87.85
2023-01-11T13:43:09.371Z,88.26
2023-01-11T13:44:09.267Z,86.85
2023-01-11T13:45:09.181Z,85.22
2023-01-11T13:46:09.121Z,84.14
2023-01-11T13:47:08.983Z,84.05
2023-01-11T13:48:08.894Z,81.85
2023-01-11T13:49:08.796Z,85.59
2023-01-11T13:50:08.729Z,82.92
2023-01-11T13:51:08.609Z,81.19
2023-01-11T13:52:08.513Z,82.45
2023-01-11T13:53:08.431Z,79.96
2023-01-11T13:54:08.327Z,79.58
2023-01-11T13:55:11.260Z,79.99
2023-01-11T13:56:09.152Z,80.16
2023-01-11T13:57:08.048Z,80.17
2023-01-11T13:58:07.960Z,80.23
2023-01-11T13:59:07.862Z,80.24
2023-01-11T14:00:07.785Z,78.93
2023-01-11T14:01:07.788Z,79.07
2023-01-11T14:02:07.584Z,75.45
2023-01-11T14:03:07.536Z,75.32
2023-01-11T14:04:07.451Z,75.82
2023-01-11T14:05:07.320Z,74.82
2023-01-11T14:06:07.252Z,73.89
2023-01-11T14:07:07.165Z,74.64
2023-01-11T14:08:07.074Z,75.43
2023-01-11T14:09:06.986Z,76.54
2023-01-11T14:10:06.890Z,78.31
2023-01-11T14:11:06.786Z,74.61
2023-01-11T14:12:07.257Z,75.37
2023-01-11T14:13:06.659Z,75.90
2023-01-11T14:14:06.527Z,73.23
2023-01-11T14:15:06.435Z,75.07
2023-01-11T14:16:06.380Z,72.41
2023-01-11T14:17:06.252Z,76.20
2023-01-11T14:18:06.181Z,75.67
2023-01-11T14:19:06.092Z,76.42
2023-01-11T14:20:05.987Z,75.88
2023-01-11T14:21:05.900Z,76.15
2023-01-11T14:22:05.806Z,77.06
2023-01-11T14:23:05.744Z,73.93
2023-01-11T14:24:05.617Z,78.43
2023-01-11T14:25:05.519Z,76.83
2023-01-11T14:26:05.445Z,76.25
2023-01-11T14:27:05.400Z,75.65
2023-01-11T14:28:05.246Z,75.49
2023-01-11T14:29:05.166Z,79.85
2023-01-11T14:30:05.075Z,90.22
2023-01-11T14:31:05.039Z,91.33
2023-01-11T14:32:04.874Z,96.61
2023-01-11T14:33:04.779Z,99.26
2023-01-11T14:34:04.705Z,102.36
2023-01-11T14:35:04.607Z,99.79
2023-01-11T14:36:04.507Z,102.95
2023-01-11T14:37:04.429Z,107.87
2023-01-11T14:38:05.275Z,106.74
2023-01-11T14:39:04.229Z,108.13
2023-01-11T14:40:04.123Z,111.88
2023-01-11T14:41:04.075Z,112.01
2023-01-11T14:42:03.969Z,115.27
2023-01-11T14:43:03.873Z,111.22
2023-01-11T14:44:03.778Z,114.01
2023-01-11T14:45:03.715Z,114.67
2023-01-11T14:46:03.654Z,117.25
2023-01-11T14:47:03.503Z,113.77
2023-01-11T14:48:03.396Z,116.69
2023-01-11T14:49:03.309Z,115.73
2023-01-11T14:50:03.238Z,116.77
2023-01-11T14:51:03.166Z,116.83
2023-01-11T14:52:03.044Z,117.50
2023-01-11T14:53:02.953Z,117.51
2023-01-11T14:54:02.866Z,116.97
2023-01-11T14:55:02.795Z,115.73
2023-01-11T14:56:02.699Z,118.56
2023-01-11T14:57:02.631Z,117.53
2023-01-11T14:58:02.564Z,119.65
2023-01-11T14:59:02.447Z,117.85
2023-01-11T15:00:02.340Z,115.13
2023-01-11T15:01:02.260Z,119.33
2023-01-11T15:02:02.215Z,117.56
2023-01-11T15:03:02.104Z,117.62
2023-01-11T15:04:02.012Z,118.64
2023-01-11T15:05:02.040Z,118.40
2023-01-11T15:06:01.831Z,119.40
2023-01-11T15:07:01.758Z,121.20
2023-01-11T15:08:01.682Z,121.18
2023-01-11T15:09:01.589Z,120.54
2023-01-11T15:10:01.524Z,119.79
2023-01-11T15:11:01.431Z,122.37
2023-01-11T15:12:01.328Z,123.79
2023-01-11T15:13:01.292Z,123.48
2023-01-11T15:14:02.790Z,122.72
2023-01-11T15:15:01.117Z,123.69
2023-01-11T15:16:01.147Z,125.95
2023-01-11T15:17:00.928Z,124.80
2023-01-11T15:18:00.828Z,126.25
2023-01-11T15:19:00.724Z,122.96
2023-01-11T15:20:00.642Z,127.33
2023-01-11T15:21:00.557Z,126.47
2023-01-11T15:22:00.450Z,125.70
2023-01-11T15:23:00.358Z,127.93
2023-01-11T15:24:00.272Z,128.63
2023-01-11T15:25:00.195Z,128.74
2023-01-11T15:26:00.116Z,129.45
2023-01-11T15:27:00.059Z,127.48
2023-01-11T15:27:59.894Z,128.88
2023-01-11T15:28:59.802Z,128.83
2023-01-11T15:29:59.716Z,130.80
2023-01-11T15:30:59.696Z,130.31
2023-01-11T15:31:59.519Z,133.53
2023-01-11T15:32:59.476Z,132.03
2023-01-11T15:33:59.434Z,130.50
2023-01-11T15:34:59.265Z,133.33
2023-01-11T15:35:59.153Z,131.01
2023-01-11T15:36:59.111Z,134.61
2023-01-11T15:37:58.994Z,133.13
2023-01-11T15:38:58.886Z,133.04
2023-01-11T15:39:58.815Z,132.85
2023-01-11T15:40:58.715Z,135.41
2023-01-11T15:41:58.621Z,134.34
2023-01-11T15:42:58.532Z,136.15
2023-01-11T15:43:58.434Z,135.96
2023-01-11T15:44:58.344Z,134.56
2023-01-11T15:45:58.244Z,134.19
2023-01-11T15:46:58.174Z,137.38
2023-01-11T15:47:58.048Z,136.66
2023-01-11T15:48:57.977Z,135.96
2023-01-11T15:49:57.909Z,138.08
2023-01-11T15:50:57.801Z,135.63
2023-01-11T15:51:57.728Z,138.16
2023-01-11T15:52:57.621Z,135.55
2023-01-11T15:53:57.556Z,135.91
2023-01-11T15:54:57.474Z,136.39
2023-01-11T15:55:57.380Z,136.73
2023-01-11T15:56:57.283Z,137.88
2023-01-11T15:57:57.183Z,139.39
2023-01-11T15:58:57.128Z,136.68
2023-01-11T15:59:57.049Z,140.69
2023-01-11T16:00:56.997Z,139.41
2023-01-11T16:01:56.836Z,138.18
2023-01-11T16:02:56.751Z,138.34
2023-01-11T16:03:58.439Z,140.98
2023-01-11T16:04:56.582Z,141.05
2023-01-11T16:05:56.493Z,139.80
2023-01-11T16:06:56.404Z,140.86
2023-01-11T16:07:56.326Z,140.20
2023-01-11T16:08:56.235Z,141.30
2023-01-11T16:09:56.136Z,141.61
2023-01-11T16:10:56.037Z,141.90
2023-01-11T16:11:55.972Z,141.20
2023-01-11T16:12:55.877Z,141.28
2023-01-11T16:13:55.778Z,141.51
2023-01-11T16:14:55.709Z,142.70
2023-01-11T16:15:55.690Z,142.82
2023-01-11T16:16:55.530Z,142.55
2023-01-11T16:17:55.440Z,143.01
2023-01-11T16:18:55.368Z,142.18
2023-01-11T16:19:55.272Z,141.54
2023-01-11T16:20:55.211Z,141.75
2023-01-11T16:21:55.133Z,143.11
2023-01-11T16:22:55.035Z,144.46
2023-01-11T16:23:54.943Z,143.18
2023-01-11T16:24:54.865Z,141.37
2023-01-11T16:25:54.778Z,142.67
2023-01-11T16:26:54.737Z,140.74
2023-01-11T16:27:54.617Z,142.63
2023-01-11T16:28:54.535Z,143.18
2023-01-11T16:29:54.426Z,142.87
2023-01-11T16:30:54.352Z,143.36
2023-01-11T16:31:54.329Z,140.07
2023-01-11T16:32:54.175Z,143.91
2023-01-11T16:33:54.100Z,141.85
2023-01-11T16:34:54.003Z,143.60
2023-01-11T16:35:53.937Z,143.60
2023-01-11T16:36:53.845Z,142.57
2023-01-11T16:37:53.763Z,144.41
2023-01-11T16:38:53.658Z,144.85
2023-01-11T16:39:53.589Z,144.05
2023-01-11T16:40:53.506Z,143.40
2023-01-11T16:41:53.426Z,145.83
2023-01-11T16:42:53.361Z,143.26
2023-01-11T16:43:53.257Z,143.83
2023-01-11T16:44:53.181Z,145.56
2023-01-11T16:45:53.218Z,144.28
2023-01-11T16:46:52.997Z,143.40
2023-01-11T16:47:52.895Z,142.85
2023-01-11T16:48:52.839Z,143.09
2023-01-11T16:49:52.732Z,146.16
2023-01-11T16:50:52.632Z,144.16
2023-01-11T16:51:52.550Z,142.53
2023-01-11T16:52:52.452Z,147.41
2023-01-11T16:53:52.428Z,144.78
2023-01-11T16:54:52.291Z,144.62
2023-01-11T16:55:52.185Z,141.94
2023-01-11T16:56:52.100Z,144.21
2023-01-11T16:57:52.009Z,143.84
2023-01-11T16:58:51.915Z,144.94
2023-01-11T16:59:51.827Z,144.44
2023-01-11T17:00:51.739Z,146.51
2023-01-11T17:01:51.673Z,144.33
2023-01-11T17:02:51.527Z,144.04
2023-01-11T17:03:51.459Z,143.76
2023-01-11T17:04:51.349Z,145.24
2023-01-11T17:05:51.279Z,140.30
2023-01-11T17:06:51.145Z,143.61
2023-01-11T17:07:51.050Z,143.76
2023-01-11T17:08:50.975Z,144.14
2023-01-11T17:09:50.880Z,143.37
2023-01-11T17:10:50.780Z,143.46
2023-01-11T17:11:50.703Z,143.51
2023-01-11T17:12:50.604Z,141.82
2023-01-11T17:13:50.523Z,143.40
2023-01-11T17:14:50.508Z,145.92
2023-01-11T17:15:50.316Z,143.02
2023-01-11T17:16:50.415Z,141.88
2023-01-11T17:17:50.171Z,145.54
2023-01-11T17:18:50.074Z,143.86
2023-01-11T17:19:49.989Z,142.85
2023-01-11T17:20:49.907Z,143.18
2023-01-11T17:21:49.808Z,141.62
2023-01-11T17:22:49.734Z,142.60
2023-01-11T17:23:49.640Z,142.47
2023-01-11T17:24:49.545Z,142.71
2023-01-11T17:25:49.565Z,142.62
2023-01-11T17:26:49.415Z,143.74
2023-01-11T17:27:49.270Z,143.12
2023-01-11T17:28:49.204Z,144.45
2023-01-11T17:29:49.109Z,143.19
2023-01-11T17:30:49.013Z,142.93
2023-01-11T17:31:48.967Z,140.49
2023-01-11T17:32:48.857Z,143.51
2023-01-11T17:33:48.756Z,143.19
2023-01-11T17:34:48.665Z,142.33
2023-01-11T17:35:48.569Z,142.22
2023-01-11T17:36:48.472Z,141.62
2023-01-11T17:37:48.408Z,142.62
2023-01-11T17:38:48.302Z,141.62
2023-01-11T17:39:48.204Z,141.35
2023-01-11T17:40:48.106Z,141.10
2023-01-11T17:41:48.035Z,143.32
2023-01-11T17:42:47.948Z,143.00
2023-01-11T17:43:47.841Z,142.61
2023-01-11T17:44:47.766Z,140.18
2023-01-11T17:45:47.701Z,142.77
2023-01-11T17:46:47.563Z,140.67
2023-01-11T17:47:47.501Z,139.50
2023-01-11T17:48:47.404Z,141.77
2023-01-11T17:49:47.293Z,141.89
2023-01-11T17:50:47.209Z,139.61
2023-01-11T17:51:47.104Z,141.89
2023-01-11T17:52:54.740Z,140.96
2023-01-11T17:53:47.930Z,141.15
2023-01-11T17:54:46.835Z,141.37
2023-01-11T17:55:46.739Z,141.13
2023-01-11T17:56:46.665Z,141.48
2023-01-11T17:57:46.557Z,141.81
2023-01-11T17:58:46.484Z,143.14
2023-01-11T17:59:46.366Z,138.95
2023-01-11T18:00:46.323Z,142.67
2023-01-11T18:01:46.192Z,138.96
2023-01-11T18:02:46.130Z,140.52
2023-01-11T18:03:46.040Z,137.29
2023-01-11T18:04:45.916Z,140.30
2023-01-11T18:05:45.803Z,143.70
2023-01-11T18:06:45.720Z,141.65
2023-01-11T18:07:45.620Z,140.39
2023-01-11T18:08:45.529Z,140.37
2023-01-11T18:09:45.432Z,139.39
2023-01-11T18:10:45.344Z,138.83
2023-01-11T18:11:45.258Z,139.29
2023-01-11T18:12:45.170Z,138.94
2023-01-11T18:13:45.085Z,139.42
2023-01-11T18:14:44.994Z,139.99
2023-01-11T18:15:44.886Z,137.27
2023-01-11T18:16:44.862Z,138.94
2023-01-11T18:17:45.405Z,139.17
2023-01-11T18:18:44.637Z,139.46
2023-01-11T18:19:44.544Z,140.88
2023-01-11T18:20:44.447Z,137.66
2023-01-11T18:21:44.400Z,138.35
2023-01-11T18:22:44.290Z,138.56
2023-01-11T18:23:44.185Z,138.09
2023-01-11T18:24:44.095Z,139.64
2023-01-11T18:25:44.070Z,138.19
2023-01-11T18:26:43.962Z,136.24
2023-01-11T18:27:43.837Z,140.62
2023-01-11T18:28:43.792Z,137.02
2023-01-11T18:29:43.666Z,138.06
2023-01-11T18:30:43.644Z,138.50
2023-01-11T18:31:43.481Z,136.33
2023-01-11T18:32:43.394Z,139.92
2023-01-11T18:33:43.315Z,138.17
2023-01-11T18:34:43.219Z,135.35
2023-01-11T18:35:43.116Z,135.05
2023-01-11T18:36:43.044Z,138.35
2023-01-11T18:37:42.942Z,138.69
2023-01-11T18:38:42.861Z,135.57
2023-01-11T18:39:42.783Z,135.51
2023-01-11T18:40:42.669Z,135.34
2023-01-11T18:41:44.616Z,137.97
2023-01-11T18:42:42.500Z,135.15
2023-01-11T18:43:42.409Z,137.78
2023-01-11T18:44:42.323Z,137.40
2023-01-11T18:45:42.237Z,135.69
2023-01-11T18:46:42.138Z,136.81
2023-01-11T18:47:42.032Z,134.56
2023-01-11T18:48:41.966Z,136.39
2023-01-11T18:49:41.850Z,136.39
2023-01-11T18:50:41.768Z,136.07
2023-01-11T18:51:41.666Z,136.69
2023-01-11T18:52:41.566Z,136.84
2023-01-11T18:53:41.567Z,136.35
2023-01-11T18:54:41.530Z,135.09
2023-01-11T18:55:41.471Z,136.86
2023-01-11T18:56:41.462Z,135.22
2023-01-11T18:57:41.406Z,135.35
2023-01-11T18:58:41.383Z,135.83
2023-01-11T18:59:41.398Z,135.18
2023-01-11T19:00:41.326Z,132.81
2023-01-11T19:01:54.383Z,134.72
2023-01-11T19:02:42.994Z,134.87
2023-01-11T19:03:42.058Z,135.13
2023-01-11T19:04:41.152Z,135.82
2023-01-11T19:05:41.078Z,135.88
2023-01-11T19:06:40.977Z,135.85
2023-01-11T19:07:40.901Z,134.70
2023-01-11T19:08:40.796Z,133.12
2023-01-11T19:09:40.714Z,134.39
2023-01-11T19:10:40.627Z,135.24
2023-01-11T19:11:40.545Z,133.77
2023-01-11T19:12:40.518Z,134.31
2023-01-11T19:13:40.487Z,134.89
2023-01-11T19:14:40.447Z,133.35
2023-01-11T19:15:40.458Z,134.60
2023-01-11T19:16:40.371Z,131.38
2023-01-11T19:17:40.338Z,134.41
2023-01-11T19:18:40.312Z,135.44
2023-01-11T19:19:40.278Z,136.92
2023-01-11T19:20:40.246Z,133.26
2023-01-11T19:21:40.198Z,133.21
2023-01-11T19:22:40.192Z,135.22
2023-01-11T19:23:40.138Z,134.49
2023-01-11T19:24:40.112Z,133.94
2023-01-11T19:25:40.100Z,131.24
2023-01-11T19:26:40.112Z,132.01
2023-01-11T19:27:40.033Z,132.59